createdAt,value
2023-04-27T00:01:00.317Z,11.04
2023-04-27T00:03:27.387Z,11.67
2023-04-27T00:05:53.989Z,11.42
2023-04-27T00:08:20.466Z,11.41
2023-04-27T00:10:46.839Z,11.14
2023-04-27T00:13:13.182Z,11.24
2023-04-27T00:15:39.599Z,10.43
2023-04-27T00:18:06.189Z,10.80
2023-04-27T00:20:33.817Z,11.39
2023-04-27T00:23:00.248Z,11.38
2023-04-27T00:25:26.686Z,11.48
2023-04-27T00:27:53.206Z,11.23
2023-04-27T00:30:20.092Z,11.33
2023-04-27T00:32:46.594Z,11.42
2023-04-27T00:35:13.113Z,11.57
2023-04-27T00:37:39.625Z,11.50
2023-04-27T00:40:07.831Z,10.76
2023-04-27T00:42:34.918Z,10.74
2023-04-27T00:45:01.563Z,10.68
2023-04-27T00:47:30.076Z,10.73
2023-04-27T00:49:56.610Z,10.63
2023-04-27T00:52:23.018Z,10.71
2023-04-27T00:54:52.729Z,10.74
2023-04-27T00:57:19.158Z,10.37
2023-04-27T00:59:46.109Z,10.62
2023-04-27T01:02:13.583Z,10.65
2023-04-27T01:04:40.931Z,10.55
2023-04-27T01:07:07.302Z,10.83
2023-04-27T01:09:33.644Z,10.94
2023-04-27T01:11:59.988Z,10.08
2023-04-27T01:14:26.326Z,10.84
2023-04-27T01:16:52.742Z,10.91
2023-04-27T01:19:19.115Z,10.44
2023-04-27T01:21:45.614Z,9.96
2023-04-27T01:24:12.058Z,10.54
2023-04-27T01:26:38.386Z,9.89
2023-04-27T01:29:04.714Z,10.41
2023-04-27T01:31:31.236Z,10.55
2023-04-27T01:33:57.621Z,10.49
2023-04-27T01:36:24.025Z,10.54
2023-04-27T01:38:51.121Z,10.29
2023-04-27T01:41:17.526Z,10.18
2023-04-27T01:43:43.877Z,9.83
2023-04-27T01:46:12.880Z,10.60
2023-04-27T01:48:40.395Z,10.47
2023-04-27T01:51:07.142Z,10.54
2023-04-27T01:53:34.302Z,10.56
2023-04-27T01:56:00.745Z,10.20
2023-04-27T01:58:27.764Z,10.50
2023-04-27T02:00:54.196Z,10.35
2023-04-27T02:03:20.625Z,10.42
2023-04-27T02:05:47.929Z,10.13
2023-04-27T02:08:14.432Z,10.16
2023-04-27T02:10:41.082Z,9.65
2023-04-27T02:13:07.522Z,10.12
2023-04-27T02:15:35.286Z,10.02
2023-04-27T02:18:03.278Z,10.11
2023-04-27T02:20:33.179Z,9.93
2023-04-27T02:22:59.594Z,9.94
2023-04-27T02:25:25.958Z,9.70
2023-04-27T02:27:52.330Z,9.72
2023-04-27T02:30:19.335Z,9.49
2023-04-27T02:32:46.464Z,9.53
2023-04-27T02:35:13.034Z,9.75
2023-04-27T02:37:39.456Z,9.58
2023-04-27T02:40:07.939Z,9.53
2023-04-27T02:42:34.300Z,9.53
2023-04-27T02:45:00.733Z,9.74
2023-04-27T02:47:27.326Z,9.17
2023-04-27T02:49:53.653Z,9.91
2023-04-27T02:52:20.020Z,10.08
2023-04-27T02:54:46.354Z,9.57
2023-04-27T02:57:12.680Z,10.04
2023-04-27T02:59:39.466Z,9.98
2023-04-27T03:02:05.859Z,10.05
2023-04-27T03:04:32.248Z,10.01
2023-04-27T03:06:58.681Z,10.04
2023-04-27T03:09:25.177Z,9.38
2023-04-27T03:11:51.546Z,9.63
2023-04-27T03:14:17.842Z,9.56
2023-04-27T03:16:44.194Z,9.12
2023-04-27T03:19:10.627Z,9.24
2023-04-27T03:21:37.050Z,9.23
2023-04-27T03:24:03.659Z,9.48
2023-04-27T03:26:30.050Z,9.78
2023-04-27T03:28:56.355Z,9.77
2023-04-27T03:31:22.847Z,9.78
2023-04-27T03:33:49.388Z,9.50
2023-04-27T03:36:15.927Z,9.75
2023-04-27T03:38:42.380Z,9.64
2023-04-27T03:41:08.785Z,8.94
2023-04-27T03:43:35.119Z,9.26
2023-04-27T03:46:01.585Z,9.39
2023-04-27T03:48:28.007Z,9.62
2023-04-27T03:50:54.326Z,9.79
2023-04-27T03:53:20.659Z,9.28
2023-04-27T03:55:47.665Z,9.16
2023-04-27T03:58:14.085Z,9.12
2023-04-27T04:00:40.691Z,8.76
2023-04-27T04:03:07.793Z,8.59
2023-04-27T04:05:34.791Z,8.93
2023-04-27T04:08:01.176Z,8.88
2023-04-27T04:10:27.759Z,8.96
2023-04-27T04:12:54.182Z,8.71
2023-04-27T04:15:20.705Z,9.00
2023-04-27T04:17:47.627Z,8.97
2023-04-27T04:20:14.134Z,8.37
2023-04-27T04:22:40.527Z,8.88
2023-04-27T04:25:07.704Z,8.05
2023-04-27T04:27:34.022Z,8.59
2023-04-27T04:30:00.714Z,8.62
2023-04-27T04:32:30.016Z,8.65
2023-04-27T04:34:56.997Z,8.60
2023-04-27T04:37:23.564Z,8.18
2023-04-27T04:39:50.236Z,8.70
2023-04-27T04:42:16.641Z,8.35
2023-04-27T04:44:43.011Z,8.42
2023-04-27T04:47:12.273Z,7.99
2023-04-27T04:49:38.627Z,7.86
2023-04-27T04:52:05.215Z,7.87
2023-04-27T04:54:31.686Z,7.85
2023-04-27T04:57:03.401Z,8.49
2023-04-27T04:59:33.998Z,8.48
2023-04-27T05:02:00.685Z,8.09
2023-04-27T05:04:27.542Z,8.70
2023-04-27T05:06:54.013Z,8.24
2023-04-27T05:09:20.439Z,8.37
2023-04-27T05:11:46.803Z,8.41
2023-04-27T05:14:13.214Z,8.48
2023-04-27T05:16:39.629Z,8.77
2023-04-27T05:19:07.166Z,8.80
2023-04-27T05:21:33.628Z,8.39
2023-04-27T05:24:02.741Z,9.01
2023-04-27T05:26:29.105Z,8.80
2023-04-27T05:28:55.574Z,9.57
2023-04-27T05:31:22.345Z,9.73
2023-04-27T05:33:49.928Z,9.70
2023-04-27T05:36:16.527Z,9.80
2023-04-27T05:38:43.357Z,9.80
2023-04-27T05:41:09.838Z,9.04
2023-04-27T05:43:38.734Z,9.81
2023-04-27T05:46:05.445Z,8.66
2023-04-27T05:48:31.849Z,9.94
2023-04-27T05:51:03.413Z,9.25
2023-04-27T05:53:30.853Z,9.28
2023-04-27T05:56:01.182Z,10.05
2023-04-27T05:58:27.774Z,9.37
2023-04-27T06:00:54.681Z,9.48
2023-04-27T06:03:21.811Z,10.08
2023-04-27T06:05:54.970Z,9.53
2023-04-27T06:08:26.921Z,9.91
2023-04-27T06:10:53.855Z,9.93
2023-04-27T06:13:20.394Z,10.26
2023-04-27T06:15:46.918Z,10.40
2023-04-27T06:18:13.793Z,10.56
2023-04-27T06:20:40.433Z,10.33
2023-04-27T06:23:07.128Z,10.59
2023-04-27T06:25:34.595Z,9.94
2023-04-27T06:28:01.221Z,10.63
2023-04-27T06:30:27.843Z,10.88
2023-04-27T06:32:54.251Z,10.65
2023-04-27T06:35:21.761Z,10.72
2023-04-27T06:37:48.130Z,10.94
2023-04-27T06:40:14.744Z,10.89
2023-04-27T06:42:41.128Z,11.08
2023-04-27T06:45:07.948Z,10.55
2023-04-27T06:47:34.322Z,10.74
2023-04-27T06:50:00.672Z,10.57
2023-04-27T06:52:27.220Z,11.05
2023-04-27T06:54:54.125Z,11.38
2023-04-27T06:57:20.447Z,11.50
2023-04-27T06:59:46.813Z,11.49
2023-04-27T07:02:13.343Z,11.71
2023-04-27T07:04:39.985Z,11.82
2023-04-27T07:07:06.340Z,11.57
2023-04-27T07:09:32.907Z,11.78
2023-04-27T07:12:01.111Z,11.78
2023-04-27T07:14:27.443Z,11.90
2023-04-27T07:16:53.805Z,11.94
2023-04-27T07:19:20.386Z,11.95
2023-04-27T07:21:47.990Z,11.91
2023-04-27T07:24:14.703Z,11.99
2023-04-27T07:26:41.362Z,11.88
2023-04-27T07:29:22.888Z,11.98
2023-04-27T07:31:52.881Z,12.26
2023-04-27T07:34:19.442Z,11.74
2023-04-27T07:36:45.909Z,12.11
2023-04-27T07:39:12.791Z,11.81
2023-04-27T07:41:39.354Z,12.23
2023-04-27T07:44:05.678Z,12.33
2023-04-27T07:46:32.306Z,12.34
2023-04-27T07:48:59.887Z,12.24
2023-04-27T07:51:28.634Z,12.18
2023-04-27T07:53:55.595Z,12.65
2023-04-27T07:56:22.063Z,12.55
2023-04-27T07:58:48.394Z,12.73
2023-04-27T08:01:14.778Z,12.17
2023-04-27T08:03:41.354Z,12.91
2023-04-27T08:06:08.237Z,12.55
2023-04-27T08:08:34.987Z,11.88
2023-04-27T08:11:01.755Z,13.21
2023-04-27T08:13:28.194Z,12.76
2023-04-27T08:15:58.388Z,13.29
2023-04-27T08:18:25.724Z,13.13
2023-04-27T08:20:52.555Z,13.34
2023-04-27T08:23:18.985Z,13.57
2023-04-27T08:25:45.440Z,13.61
2023-04-27T08:28:13.256Z,13.10
2023-04-27T08:30:39.656Z,13.06
2023-04-27T08:33:06.175Z,12.94
2023-04-27T08:35:32.566Z,13.77
2023-04-27T08:38:01.329Z,13.81
2023-04-27T08:40:29.489Z,13.50
2023-04-27T08:43:01.006Z,13.64
2023-04-27T08:45:28.563Z,14.45
2023-04-27T08:47:54.943Z,13.55
2023-04-27T08:50:24.092Z,13.78
2023-04-27T08:52:51.920Z,14.55
2023-04-27T08:55:18.472Z,14.28
2023-04-27T08:57:58.179Z,14.22
2023-04-27T09:00:25.969Z,14.51
2023-04-27T09:02:52.824Z,15.19
2023-04-27T09:05:22.080Z,14.66
2023-04-27T09:08:08.002Z,14.89
2023-04-27T09:10:47.874Z,14.75
2023-04-27T09:13:14.672Z,14.88
2023-04-27T09:15:48.606Z,15.59
2023-04-27T09:18:19.927Z,15.29
2023-04-27T09:20:48.893Z,15.13
2023-04-27T09:23:34.922Z,16.13
2023-04-27T09:26:05.695Z,16.04
2023-04-27T09:28:32.403Z,15.79
2023-04-27T09:31:00.709Z,16.50
2023-04-27T09:33:28.400Z,15.97
2023-04-27T09:35:56.579Z,16.54
2023-04-27T09:38:23.735Z,16.67
2023-04-27T09:40:52.594Z,16.67
2023-04-27T09:43:19.339Z,16.14
2023-04-27T09:45:46.337Z,16.62
2023-04-27T09:48:13.658Z,16.49
2023-04-27T09:50:42.408Z,16.63
2023-04-27T09:53:12.039Z,17.23
2023-04-27T09:55:50.492Z,17.55
2023-04-27T09:58:43.661Z,17.73
2023-04-27T10:01:37.306Z,17.16
2023-04-27T10:04:41.764Z,18.07
2023-04-27T10:07:15.266Z,17.61
2023-04-27T10:09:44.846Z,17.83
2023-04-27T10:12:21.626Z,18.55
2023-04-27T10:14:58.916Z,18.04
2023-04-27T10:17:34.014Z,17.81
2023-04-27T10:20:02.282Z,18.68
2023-04-27T10:22:42.996Z,18.64
2023-04-27T10:25:29.756Z,18.79
2023-04-27T10:27:59.329Z,18.93
2023-04-27T10:30:31.767Z,18.79
2023-04-27T10:33:03.976Z,18.87
2023-04-27T10:35:38.327Z,18.91
2023-04-27T10:38:22.672Z,19.27
2023-04-27T10:41:02.615Z,19.55
2023-04-27T10:43:31.749Z,19.97
2023-04-27T10:46:39.592Z,19.85
2023-04-27T10:49:09.729Z,20.87
2023-04-27T10:54:46.380Z,21.38
2023-04-27T10:57:13.076Z,21.45
2023-04-27T10:59:51.296Z,21.71
2023-04-27T11:02:24.995Z,21.64
2023-04-27T11:04:51.682Z,22.36
2023-04-27T11:07:26.430Z,23.30
2023-04-27T11:09:53.182Z,22.01
2023-04-27T11:12:19.909Z,22.48
2023-04-27T11:14:46.546Z,23.39
2023-04-27T11:17:13.369Z,22.70
2023-04-27T11:19:47.821Z,21.83
2023-04-27T11:22:18.834Z,22.78
2023-04-27T11:24:50.019Z,23.18
2023-04-27T11:27:17.877Z,22.39
2023-04-27T11:29:44.854Z,22.35
2023-04-27T11:32:21.919Z,22.38
2023-04-27T11:34:53.667Z,22.97
2023-04-27T11:37:25.354Z,23.08
2023-04-27T11:39:54.196Z,23.13
2023-04-27T11:42:26.373Z,22.75
2023-04-27T11:45:01.099Z,22.40
2023-04-27T11:47:29.177Z,23.11
2023-04-27T11:50:01.065Z,23.22
2023-04-27T11:52:35.742Z,23.30
2023-04-27T11:55:06.082Z,24.04
2023-04-27T11:57:34.004Z,23.78
2023-04-27T12:00:02.135Z,23.64
2023-04-27T12:02:32.090Z,23.34
2023-04-27T12:04:59.828Z,23.79
2023-04-27T12:07:26.917Z,24.31
2023-04-27T12:09:53.319Z,24.34
2023-04-27T12:12:22.389Z,24.24
2023-04-27T12:14:49.902Z,24.06
2023-04-27T12:17:16.575Z,23.76
2023-04-27T12:19:43.086Z,24.36
2023-04-27T12:22:09.664Z,24.95
2023-04-27T12:24:37.011Z,24.41
2023-04-27T12:27:04.301Z,25.47
2023-04-27T12:33:50.113Z,25.89
2023-04-27T12:40:08.970Z,25.44
2023-04-27T12:42:35.724Z,25.70
2023-04-27T12:45:02.143Z,25.98
2023-04-27T12:47:49.839Z,25.78
2023-04-27T12:50:15.741Z,25.68
2023-04-27T12:52:42.135Z,25.75
2023-04-27T12:55:17.983Z,25.05
2023-04-27T12:57:53.574Z,24.85
2023-04-27T13:00:20.526Z,25.63
2023-04-27T13:02:46.997Z,25.16
2023-04-27T13:05:13.494Z,25.68
2023-04-27T13:07:39.885Z,24.08
2023-04-27T13:10:08.024Z,23.76
2023-04-27T13:12:34.483Z,23.23
2023-04-27T13:15:01.015Z,23.47
2023-04-27T13:17:27.472Z,23.73
2023-04-27T13:19:55.175Z,24.22
2023-04-27T13:22:21.585Z,23.50
2023-04-27T13:24:47.915Z,24.12
2023-04-27T13:27:14.292Z,24.33
2023-04-27T13:29:40.760Z,23.53
2023-04-27T13:32:07.195Z,24.57
2023-04-27T13:34:33.574Z,24.05
2023-04-27T13:37:00.171Z,24.34
2023-04-27T13:39:26.550Z,24.43
2023-04-27T13:41:53.967Z,24.88
2023-04-27T13:44:20.347Z,24.67
2023-04-27T13:46:46.795Z,25.26
2023-04-27T13:49:13.321Z,25.25
2023-04-27T13:51:40.517Z,24.94
2023-04-27T13:54:06.908Z,24.99
2023-04-27T13:56:33.268Z,24.95
2023-04-27T13:59:00.273Z,24.64
2023-04-27T14:01:27.122Z,25.03
2023-04-27T14:03:53.946Z,24.90
2023-04-27T14:06:20.579Z,24.80
2023-04-27T14:08:47.031Z,24.23
2023-04-27T14:11:13.511Z,23.74
2023-04-27T14:13:39.848Z,23.67
2023-04-27T14:16:07.113Z,23.48
2023-04-27T14:18:33.616Z,23.00
2023-04-27T14:21:00.076Z,23.08
2023-04-27T14:23:26.530Z,23.02
2023-04-27T14:25:53.033Z,23.37
2023-04-27T14:28:19.350Z,23.82
2023-04-27T14:30:45.878Z,23.62
2023-04-27T14:33:12.344Z,23.49
2023-04-27T14:35:38.807Z,23.38
2023-04-27T14:38:05.402Z,23.62
2023-04-27T14:40:32.246Z,23.70
2023-04-27T14:42:58.818Z,23.82
2023-04-27T14:45:29.027Z,23.48
2023-04-27T14:48:00.785Z,23.30
2023-04-27T14:50:28.088Z,23.74
2023-04-27T14:52:58.341Z,23.43
2023-04-27T14:55:24.972Z,23.89
2023-04-27T14:57:51.424Z,23.37
2023-04-27T15:00:18.044Z,23.97
2023-04-27T15:02:44.549Z,24.14
2023-04-27T15:05:11.025Z,23.81
2023-04-27T15:07:37.429Z,24.20
2023-04-27T15:10:04.350Z,23.97
2023-04-27T15:12:30.699Z,23.86
2023-04-27T15:14:57.065Z,24.24
2023-04-27T15:17:23.971Z,23.47
2023-04-27T15:19:51.618Z,23.49
2023-04-27T15:22:18.011Z,24.25
2023-04-27T15:24:44.378Z,24.25
2023-04-27T15:27:10.979Z,24.14
2023-04-27T15:29:37.382Z,24.02
2023-04-27T15:32:04.140Z,24.12
2023-04-27T15:34:31.005Z,23.97
2023-04-27T15:36:57.711Z,23.37
2023-04-27T15:39:24.030Z,23.69
2023-04-27T15:41:50.340Z,23.12
2023-04-27T15:44:16.827Z,23.38
2023-04-27T15:46:43.357Z,23.07
2023-04-27T15:49:12.297Z,22.91
2023-04-27T15:51:38.844Z,22.55
2023-04-27T15:54:05.410Z,22.90
2023-04-27T15:56:31.918Z,22.83
2023-04-27T15:58:58.321Z,23.02
2023-04-27T16:01:25.902Z,23.02
2023-04-27T16:03:52.428Z,22.40
2023-04-27T16:06:18.800Z,23.13
2023-04-27T16:08:45.272Z,23.10
2023-04-27T16:11:12.946Z,22.42
2023-04-27T16:13:39.817Z,22.91
2023-04-27T16:16:08.483Z,22.83
2023-04-27T16:18:36.481Z,22.51
2023-04-27T16:21:03.947Z,22.47
2023-04-27T16:23:30.550Z,22.37
2023-04-27T16:25:57.297Z,22.08
2023-04-27T16:28:23.662Z,22.54
2023-04-27T16:30:52.773Z,22.38
2023-04-27T16:33:19.817Z,22.15
2023-04-27T16:35:47.093Z,21.97
2023-04-27T16:38:13.805Z,22.32
2023-04-27T16:40:40.406Z,21.76
2023-04-27T16:43:06.770Z,21.91
2023-04-27T16:45:34.029Z,22.10
2023-04-27T16:48:02.059Z,21.81
2023-04-27T16:50:32.399Z,21.59
2023-04-27T16:53:06.865Z,21.91
2023-04-27T16:55:34.352Z,21.20
2023-04-27T16:58:01.149Z,21.00
2023-04-27T17:00:28.679Z,21.28
2023-04-27T17:02:55.492Z,21.66
2023-04-27T17:05:22.000Z,21.44
2023-04-27T17:07:48.380Z,21.38
2023-04-27T17:10:16.427Z,20.94
2023-04-27T17:12:42.786Z,20.81
2023-04-27T17:15:10.747Z,21.37
2023-04-27T17:17:37.210Z,20.98
2023-04-27T17:20:06.566Z,20.86
2023-04-27T17:22:33.010Z,21.12
2023-04-27T17:24:59.401Z,20.41
2023-04-27T17:27:26.008Z,20.64
2023-04-27T17:29:54.406Z,21.07
2023-04-27T17:32:20.896Z,20.76
2023-04-27T17:34:47.403Z,20.59
2023-04-27T17:37:14.763Z,20.16
2023-04-27T17:39:41.454Z,20.49
2023-04-27T17:42:12.140Z,20.83
2023-04-27T17:44:41.047Z,20.64
2023-04-27T17:47:08.298Z,20.15
2023-04-27T17:49:35.042Z,20.61
2023-04-27T17:52:01.439Z,20.44
2023-04-27T17:54:29.928Z,20.37
2023-04-27T17:56:56.602Z,20.39
2023-04-27T17:59:23.119Z,20.19
2023-04-27T18:01:49.621Z,19.93
2023-04-27T18:04:16.194Z,20.08
2023-04-27T18:06:42.651Z,19.94
2023-04-27T18:09:08.974Z,19.81
2023-04-27T18:11:36.160Z,19.65
2023-04-27T18:14:02.585Z,19.66
2023-04-27T18:16:29.219Z,19.41
2023-04-27T18:18:55.696Z,19.72
2023-04-27T18:21:22.157Z,19.66
2023-04-27T18:23:48.595Z,19.37
2023-04-27T18:26:15.004Z,19.59
2023-04-27T18:28:41.751Z,19.13
2023-04-27T18:31:18.213Z,19.65
2023-04-27T18:33:45.300Z,18.70
2023-04-27T18:36:11.955Z,19.03
2023-04-27T18:38:38.652Z,19.64
2023-04-27T18:41:05.031Z,18.90
2023-04-27T18:43:34.819Z,19.06
2023-04-27T18:46:01.201Z,18.87
2023-04-27T18:48:27.632Z,19.01
2023-04-27T18:50:54.148Z,18.95
2023-04-27T18:53:21.110Z,19.34
2023-04-27T18:55:47.480Z,19.12
2023-04-27T18:58:13.875Z,18.99
2023-04-27T19:00:40.453Z,19.27
2023-04-27T19:03:07.128Z,19.17
2023-04-27T19:05:33.559Z,19.08
2023-04-27T19:07:59.991Z,19.07
2023-04-27T19:10:26.443Z,19.05
2023-04-27T19:12:53.239Z,18.26
2023-04-27T19:15:19.629Z,18.60
2023-04-27T19:17:47.260Z,18.97
2023-04-27T19:20:16.932Z,18.53
2023-04-27T19:22:43.312Z,18.66
2023-04-27T19:25:09.994Z,18.77
2023-04-27T19:27:36.570Z,18.31
2023-04-27T19:30:04.229Z,18.99
2023-04-27T19:32:30.854Z,18.36
2023-04-27T19:34:58.710Z,18.34
2023-04-27T19:37:26.067Z,18.95
2023-04-27T19:39:52.669Z,18.43
2023-04-27T19:42:19.200Z,18.93
2023-04-27T19:44:45.834Z,18.26
2023-04-27T19:47:12.164Z,18.64
2023-04-27T19:49:38.649Z,18.54
2023-04-27T19:52:10.330Z,18.15
2023-04-27T19:54:38.045Z,18.51
2023-04-27T19:57:04.660Z,18.12
2023-04-27T19:59:30.989Z,17.92
2023-04-27T20:02:04.284Z,18.34
2023-04-27T20:04:31.101Z,17.87
2023-04-27T20:06:57.562Z,18.21
2023-04-27T20:09:23.927Z,17.90
2023-04-27T20:11:50.399Z,18.53
2023-04-27T20:14:17.049Z,17.70
2023-04-27T20:16:44.648Z,17.59
2023-04-27T20:19:11.226Z,18.19
2023-04-27T20:21:38.085Z,18.20
2023-04-27T20:24:04.640Z,17.92
2023-04-27T20:26:31.023Z,17.24
2023-04-27T20:28:57.363Z,18.21
2023-04-27T20:31:23.749Z,18.07
2023-04-27T20:33:50.104Z,18.11
2023-04-27T20:36:18.313Z,18.13
2023-04-27T20:38:45.354Z,18.20
2023-04-27T20:41:12.252Z,18.07
2023-04-27T20:43:41.637Z,17.60
2023-04-27T20:46:08.112Z,17.21
2023-04-27T20:48:34.623Z,18.09
2023-04-27T20:51:01.084Z,17.82
2023-04-27T20:53:27.859Z,17.91
2023-04-27T20:55:54.224Z,17.94
2023-04-27T20:58:20.696Z,17.51
2023-04-27T21:00:47.038Z,17.32
2023-04-27T21:03:13.584Z,17.55
2023-04-27T21:05:41.117Z,17.69
2023-04-27T21:08:07.538Z,17.76
2023-04-27T21:10:35.308Z,17.18
2023-04-27T21:13:03.138Z,17.22
2023-04-27T21:15:29.684Z,17.16
2023-04-27T21:17:56.058Z,17.13
2023-04-27T21:20:22.456Z,17.64
2023-04-27T21:22:48.788Z,17.56
2023-04-27T21:25:15.123Z,17.46
2023-04-27T21:27:41.618Z,17.01
2023-04-27T21:30:08.687Z,17.59
2023-04-27T21:32:35.093Z,17.55
2023-04-27T21:35:01.578Z,17.60
2023-04-27T21:37:27.941Z,17.39
2023-04-27T21:39:54.300Z,17.10
2023-04-27T21:42:20.674Z,17.47
2023-04-27T21:44:47.066Z,17.30
2023-04-27T21:47:13.417Z,17.51
2023-04-27T21:49:39.779Z,16.96
2023-04-27T21:52:06.160Z,17.38
2023-04-27T21:54:32.514Z,17.39
2023-04-27T21:56:58.879Z,17.33
2023-04-27T21:59:25.232Z,17.36
2023-04-27T22:01:51.626Z,17.35
2023-04-27T22:04:18.295Z,17.24
2023-04-27T22:06:45.382Z,16.81
2023-04-27T22:09:12.199Z,16.62
2023-04-27T22:11:38.760Z,17.17
2023-04-27T22:14:05.351Z,17.18
2023-04-27T22:16:31.682Z,16.55
2023-04-27T22:18:58.413Z,17.04
2023-04-27T22:21:24.968Z,16.95
2023-04-27T22:23:51.335Z,17.12
2023-04-27T22:26:17.828Z,16.99
2023-04-27T22:28:44.167Z,16.94
2023-04-27T22:31:10.642Z,17.11
2023-04-27T22:33:37.135Z,17.08
2023-04-27T22:36:03.637Z,17.05
2023-04-27T22:38:29.984Z,16.65
2023-04-27T22:40:56.332Z,16.59
2023-04-27T22:43:22.766Z,16.58
2023-04-27T22:45:49.199Z,16.33
2023-04-27T22:48:16.216Z,16.15
2023-04-27T22:50:42.594Z,16.28
2023-04-27T22:53:09.045Z,15.88
2023-04-27T22:55:35.447Z,15.48
2023-04-27T22:58:01.807Z,15.81
2023-04-27T23:00:28.270Z,15.54
2023-04-27T23:02:54.794Z,15.75
2023-04-27T23:05:22.064Z,15.70
2023-04-27T23:07:50.488Z,15.65
2023-04-27T23:10:18.714Z,15.71
2023-04-27T23:12:45.103Z,15.76
2023-04-27T23:15:11.558Z,15.89
2023-04-27T23:17:37.993Z,15.36
2023-04-27T23:20:26.757Z,15.41
2023-04-27T23:22:54.910Z,15.48
2023-04-27T23:25:21.599Z,15.79
2023-04-27T23:27:49.883Z,15.77
2023-04-27T23:30:17.657Z,15.66
2023-04-27T23:32:44.060Z,15.86
2023-04-27T23:35:10.532Z,15.58
2023-04-27T23:37:36.852Z,15.82
2023-04-27T23:40:04.167Z,15.90
2023-04-27T23:42:30.511Z,15.75
2023-04-27T23:44:57.509Z,15.90
2023-04-27T23:47:23.826Z,15.18
2023-04-27T23:49:50.314Z,15.09
2023-04-27T23:52:16.774Z,15.82
2023-04-27T23:54:43.160Z,15.49
2023-04-27T23:57:09.762Z,15.05
2023-04-27T23:59:36.359Z,15.87
